Dades meteomassalio
Diari Summary for Octubre 22, 2017 Units:  Metric    English   Both
« Previous Day
Next Day »
Diari Semanal Mensual Anual Personalitzat
  Maxima: Minima: Mijana:
Temperatura: -17.8 °C -11.9 °C -9.8 °C
Rosada: -17.8 °C -14.9 °C -14 °C
Humitat: Humidity % 47 % 61 %
Velocitat del vent: 0 km/h 0 km/h 40.2 km/h
Racha vent: 0 km/h - -
Vent:- - SSW
Pressio: 0 hPa 34760.7 hPa -
Pluja: 0 mm    
Historical Graphs
 
 
Tabular Data for Octubre 22, 2017
Time Temperature Dew Point Pressure Wind Wind Speed Wind Gust Humidity Rainfall Rate (Hourly) solar Conditions
-17.8 °C -17.8 °C 0 hPa Calm     Humidity % 0 mm SolarRadiationWatts/m^2 W/m2 Conditions
00:03 -9.1 °C -13 °C 34818.2 hPa SSW 23.8 km/h 23.8 km/h 63 % 0 mm 0.0 W/m2 CLR
00:08 -9.1 °C -13 °C 34818.2 hPa SSW 35.7 km/h 35.7 km/h 63 % 0 mm 0.0 W/m2 CLR
00:13 -9.1 °C -13 °C 34818.2 hPa SSW 23.3 km/h 23.3 km/h 63 % 0 mm 0.0 W/m2 CLR
00:18 -9.1 °C -13.2 °C 34818.2 hPa SSW 32.8 km/h 32.8 km/h 62 % 0 mm 0.0 W/m2 CLR
00:23 -9.1 °C -13.3 °C 34818.2 hPa SW 41.7 km/h 41.7 km/h 61 % 0 mm 0.0 W/m2 CLR
00:28 -9.1 °C -13.3 °C 34818.2 hPa SSW 38.8 km/h 38.8 km/h 61 % 0 mm 0.0 W/m2 CLR
00:33 -9.1 °C -13.4 °C 34818.2 hPa SSW 32.8 km/h 32.8 km/h 60 % 0 mm 0.0 W/m2 CLR
00:38 -9.1 °C -13.4 °C 34818.2 hPa South 32.8 km/h 32.8 km/h 60 % 0 mm 0.0 W/m2 CLR
00:44 -9.4 °C -13.7 °C 34831.8 hPa SSW 26.9 km/h 26.9 km/h 60 % 0 mm 0.0 W/m2 CLR
00:49 -9.4 °C -13.7 °C 34831.8 hPa SSW 29.8 km/h 29.8 km/h 60 % 0 mm 0.0 W/m2 CLR
00:54 -9.4 °C -13.7 °C 34818.2 hPa SSW 15.6 km/h 15.6 km/h 60 % 0 mm 0.0 W/m2 CLR
00:59 -9.4 °C -13.7 °C 34818.2 hPa SSW 36.2 km/h 36.2 km/h 60 % 0 mm 0.0 W/m2 CLR
01:04 -9.4 °C -13.7 °C 34818.2 hPa SSW 32.8 km/h 32.8 km/h 60 % 0 mm 0.0 W/m2 CLR
01:09 -9.4 °C -13.7 °C 34818.2 hPa SSW 32.8 km/h 32.8 km/h 60 % 0 mm 0.0 W/m2 CLR
01:14 -9.4 °C -13.7 °C 34818.2 hPa SSW 26.9 km/h 26.9 km/h 60 % 0 mm 0.0 W/m2 CLR
01:19 -9.4 °C -13.7 °C 34818.2 hPa SSW 41.7 km/h 41.7 km/h 60 % 0 mm 0.0 W/m2 CLR
01:24 -9.4 °C -13.7 °C 34818.2 hPa SSW 50.7 km/h 50.7 km/h 60 % 0 mm 0.0 W/m2 CLR
01:29 -9.4 °C -13.7 °C 34818.2 hPa SSW 41.7 km/h 41.7 km/h 60 % 0 mm 0.0 W/m2 CLR
01:34 -9.4 °C -13.7 °C 34818.2 hPa SSW 31.1 km/h 31.1 km/h 60 % 0 mm 0.0 W/m2 CLR
01:39 -9.4 °C -13.7 °C 34831.8 hPa SSW 38.8 km/h 38.8 km/h 60 % 0 mm 0.0 W/m2 CLR
01:44 -9.4 °C -13.8 °C 34818.2 hPa SW 32.8 km/h 32.8 km/h 59 % 0 mm 0.0 W/m2 CLR
01:49 -9.8 °C -14.2 °C 34818.2 hPa SSW 47.6 km/h 47.6 km/h 59 % 0 mm 0.0 W/m2 CLR
01:54 -9.8 °C -14 °C 34831.8 hPa SSW 28.5 km/h 28.5 km/h 60 % 0 mm 0.0 W/m2 CLR
01:59 -9.8 °C -14 °C 34818.2 hPa SSW 32.8 km/h 32.8 km/h 60 % 0 mm 0.0 W/m2 CLR
02:04 -9.8 °C -14 °C 34831.8 hPa SSW 29.8 km/h 29.8 km/h 60 % 0 mm 0.0 W/m2 CLR
02:09 -9.8 °C -14 °C 34831.8 hPa SSW 35.7 km/h 35.7 km/h 60 % 0 mm 0.0 W/m2 CLR
02:14 -9.8 °C -14 °C 34831.8 hPa SSW 32.8 km/h 32.8 km/h 60 % 0 mm 0.0 W/m2 CLR
02:19 -9.8 °C -13.9 °C 34831.8 hPa SSW 44.7 km/h 44.7 km/h 61 % 0 mm 0.0 W/m2 CLR
02:24 -10.1 °C -14.2 °C 34831.8 hPa SSW 29.8 km/h 29.8 km/h 61 % 0 mm 0.0 W/m2 CLR
02:29 -10.1 °C -14.1 °C 34831.8 hPa SW 41.7 km/h 41.7 km/h 62 % 0 mm 0.0 W/m2 CLR
02:34 -10.1 °C -14.1 °C 34818.2 hPa SW 25.9 km/h 25.9 km/h 62 % 0 mm 0.0 W/m2 CLR
02:39 -10.1 °C -14.1 °C 34818.2 hPa SSW 29.8 km/h 29.8 km/h 62 % 0 mm 0.0 W/m2 CLR
02:44 -10.1 °C -13.9 °C 34831.8 hPa WSW 44.7 km/h 44.7 km/h 63 % 0 mm 0.0 W/m2 CLR
02:49 -10.1 °C -13.9 °C 34831.8 hPa SSW 29.8 km/h 29.8 km/h 63 % 0 mm 0.0 W/m2 CLR
02:54 -10.1 °C -13.9 °C 34831.8 hPa SW 50.7 km/h 50.7 km/h 63 % 0 mm 0.0 W/m2 CLR
02:59 -10.1 °C -13.8 °C 34831.8 hPa SW 50.7 km/h 50.7 km/h 64 % 0 mm 0.0 W/m2 CLR
03:04 -10.1 °C -13.8 °C 34831.8 hPa SW 32.8 km/h 32.8 km/h 64 % 0 mm 0.0 W/m2 CLR
03:09 -10.1 °C -13.8 °C 34831.8 hPa SSW 41.7 km/h 41.7 km/h 64 % 0 mm 0.0 W/m2 CLR
03:14 -10.4 °C -13.9 °C 34831.8 hPa SW 29.8 km/h 29.8 km/h 65 % 0 mm 0.0 W/m2 CLR
03:19 -10.4 °C -13.9 °C 34831.8 hPa SW 29.8 km/h 29.8 km/h 65 % 0 mm 0.0 W/m2 CLR
03:24 -10.4 °C -13.9 °C 34831.8 hPa SW 50.7 km/h 50.7 km/h 65 % 0 mm 0.0 W/m2 CLR
03:29 -10.4 °C -13.9 °C 34818.2 hPa SSW 50.7 km/h 50.7 km/h 65 % 0 mm 0.0 W/m2 CLR
03:34 -10.4 °C -13.8 °C 34831.8 hPa SW 41.7 km/h 41.7 km/h 66 % 0 mm 0.0 W/m2 CLR
03:37 -10.4 °C -13.8 °C 34831.8 hPa SW 41.7 km/h 41.7 km/h 66 % 0 mm 0.0 W/m2 CLR
03:42 -10.4 °C -13.8 °C 34831.8 hPa SSW 41.7 km/h 41.7 km/h 66 % 0 mm 0.0 W/m2 CLR
03:48 -10.4 °C -13.8 °C 34831.8 hPa SW 46.7 km/h 46.7 km/h 66 % 0 mm 0.0 W/m2 CLR
03:52 -10.4 °C -13.8 °C 34831.8 hPa SW 47.6 km/h 47.6 km/h 66 % 0 mm 0.0 W/m2 CLR
03:58 -10.4 °C -13.7 °C 34831.8 hPa SW 50.7 km/h 50.7 km/h 67 % 0 mm 0.0 W/m2 CLR
04:03 -10.4 °C -13.7 °C 34831.8 hPa WSW 47.6 km/h 47.6 km/h 67 % 0 mm 0.0 W/m2 CLR
04:08 -10.7 °C -14 °C 34818.2 hPa SSW 35.7 km/h 35.7 km/h 67 % 0 mm 0.0 W/m2 CLR
04:13 -10.7 °C -14 °C 34831.8 hPa SW 41.7 km/h 41.7 km/h 67 % 0 mm 0.0 W/m2 CLR
04:18 -10.7 °C -14 °C 34818.2 hPa SW 44.1 km/h 44.1 km/h 67 % 0 mm 0.0 W/m2 CLR
04:23 -10.7 °C -14 °C 34818.2 hPa SSW 35.7 km/h 35.7 km/h 67 % 0 mm 0.0 W/m2 CLR
04:28 -10.7 °C -14 °C 34818.2 hPa SSW 36.2 km/h 36.2 km/h 67 % 0 mm 0.0 W/m2 CLR
04:30 -10.7 °C -14 °C 34818.2 hPa SSW 38.8 km/h 38.8 km/h 67 % 0 mm 0.0 W/m2 CLR
04:35 -10.7 °C -13.9 °C 34818.2 hPa SSW 38.8 km/h 38.8 km/h 68 % 0 mm 0.0 W/m2 CLR
04:40 -10.7 °C -13.9 °C 34831.8 hPa SSW 38.8 km/h 38.8 km/h 68 % 0 mm 0.0 W/m2 CLR
04:50 -10.7 °C -13.9 °C 34818.2 hPa SSW 35.7 km/h 35.7 km/h 68 % 0 mm 0.0 W/m2 CLR
04:55 -11 °C -14.2 °C 34818.2 hPa SSW 35.7 km/h 35.7 km/h 68 % 0 mm 0.0 W/m2 CLR
05:00 -10.7 °C -13.9 °C 34818.2 hPa SSW 29.8 km/h 29.8 km/h 68 % 0 mm 0.0 W/m2 CLR
05:05 -11 °C -14.2 °C 34818.2 hPa SSW 38.8 km/h 38.8 km/h 68 % 0 mm 0.0 W/m2 CLR
05:10 -11 °C -14.2 °C 34818.2 hPa SSW 47.6 km/h 47.6 km/h 68 % 0 mm 0.0 W/m2 CLR
05:19 -11 °C -14.1 °C 34818.2 hPa SSW 41.7 km/h 41.7 km/h 69 % 0 mm 0.0 W/m2 CLR
05:21 -11 °C -14.1 °C 34818.2 hPa SSW 32.8 km/h 32.8 km/h 69 % 0 mm 0.0 W/m2 CLR
05:24 -11 °C -14.1 °C 34818.2 hPa SSW 41.7 km/h 41.7 km/h 69 % 0 mm 0.0 W/m2 CLR
05:26 -11 °C -14.1 °C 34818.2 hPa SSW 35.7 km/h 35.7 km/h 69 % 0 mm 0.0 W/m2 CLR
05:30 -11 °C -14.1 °C 34818.2 hPa SSW 44.7 km/h 44.7 km/h 69 % 0 mm 0.0 W/m2 CLR
05:35 -11 °C -14.1 °C 34818.2 hPa SSW 41.7 km/h 41.7 km/h 69 % 0 mm 0.0 W/m2 CLR
05:40 -11 °C -14.1 °C 34818.2 hPa South 38.8 km/h 38.8 km/h 69 % 0 mm 0.0 W/m2 CLR
05:45 -11 °C -13.9 °C 34818.2 hPa SSW 35.7 km/h 35.7 km/h 70 % 0 mm 0.0 W/m2 CLR
05:50 -11 °C -13.9 °C 34818.2 hPa SSW 28.5 km/h 29 km/h 70 % 0 mm 0.0 W/m2 CLR
05:55 -11.3 °C -14.2 °C 34818.2 hPa SSW 29.8 km/h 31.5 km/h 70 % 0 mm 0.0 W/m2 CLR
06:00 -11.3 °C -14.2 °C 34818.2 hPa South 41.7 km/h 41.7 km/h 70 % 0 mm 0.0 W/m2 CLR
06:05 -11.3 °C -14.2 °C 34818.2 hPa South 32.8 km/h 32.8 km/h 70 % 0 mm 0.0 W/m2 CLR
06:10 -11.3 °C -14.2 °C 34818.2 hPa SSW 35.7 km/h 35.7 km/h 70 % 0 mm 0.0 W/m2 CLR
06:15 -11.3 °C -14.2 °C 34818.2 hPa SSW 29.8 km/h 29.8 km/h 70 % 0 mm 0.0 W/m2 CLR
06:20 -11.3 °C -14.2 °C 34818.2 hPa SSW 32.8 km/h 32.8 km/h 70 % 0 mm 0.0 W/m2 CLR
06:25 -11.3 °C -14.2 °C 34831.8 hPa SSW 35.7 km/h 35.7 km/h 70 % 0 mm 0.0 W/m2 CLR
06:30 -11.3 °C -14.2 °C 34831.8 hPa SW 35.7 km/h 35.7 km/h 70 % 0 mm 0.0 W/m2 CLR
06:31 -11.3 °C -14.2 °C 34831.8 hPa SSW 35.7 km/h 35.7 km/h 70 % 0 mm 0.0 W/m2 CLR
06:36 -11.3 °C -14.2 °C 34831.8 hPa SSW 29.8 km/h 29.8 km/h 70 % 0 mm 0.0 W/m2 CLR
06:41 -11.3 °C -14.1 °C 34831.8 hPa SSW 32.8 km/h 32.8 km/h 71 % 0 mm 0.0 W/m2 CLR
06:46 -11.3 °C -14.2 °C 34831.8 hPa SSW 38.8 km/h 38.8 km/h 70 % 0 mm 0.0 W/m2 CLR
06:51 -11.3 °C -14.2 °C 34831.8 hPa South 29.8 km/h 29.8 km/h 70 % 0 mm 0.0 W/m2 CLR
06:56 -11.3 °C -14.2 °C 34831.8 hPa SSW 32.8 km/h 32.8 km/h 70 % 0 mm 0.0 W/m2 CLR
07:01 -11.6 °C -14.6 °C 34831.8 hPa South 29.8 km/h 29.8 km/h 70 % 0 mm 0.0 W/m2 CLR
07:06 -11.6 °C -14.4 °C 34831.8 hPa South 41.7 km/h 41.7 km/h 71 % 0 mm 0.0 W/m2 CLR
07:11 -11.6 °C -14.6 °C 34831.8 hPa South 32.8 km/h 32.8 km/h 70 % 0 mm 0.0 W/m2 CLR
07:12 -11.6 °C -14.6 °C 34831.8 hPa SSW 38.8 km/h 38.8 km/h 70 % 0 mm 0.0 W/m2 CLR
07:17 -11.6 °C -14.6 °C 34831.8 hPa SSW 31.1 km/h 31.1 km/h 70 % 0 mm 0.0 W/m2 CLR
07:22 -11.6 °C -14.4 °C 34831.8 hPa South 31.1 km/h 31.1 km/h 71 % 0 mm 0.0 W/m2 CLR
07:27 -11.6 °C -14.4 °C 34831.8 hPa South 29.8 km/h 29.8 km/h 71 % 0 mm 0.0 W/m2 CLR
07:32 -11.6 °C -14.4 °C 34831.8 hPa South 23.8 km/h 23.8 km/h 71 % 0 mm 0.0 W/m2 CLR
07:37 -11.9 °C -14.7 °C 34831.8 hPa South 32.8 km/h 32.8 km/h 71 % 0 mm 0.0 W/m2 CLR
07:42 -11.6 °C -14.3 °C 34841.9 hPa South 41.7 km/h 41.7 km/h 72 % 0 mm 0.0 W/m2 CLR
07:47 -11.9 °C -14.6 °C 34831.8 hPa South 41.7 km/h 41.7 km/h 72 % 0 mm 0.0 W/m2 CLR
07:52 -11.6 °C -14.3 °C 34831.8 hPa South 35.7 km/h 35.7 km/h 72 % 0 mm 0.0 W/m2 CLR
07:57 -11.9 °C -14.6 °C 34831.8 hPa SSE 20.9 km/h 20.9 km/h 72 % 0 mm 0.0 W/m2 CLR
08:02 -11.9 °C -14.5 °C 34841.9 hPa South 26.9 km/h 26.9 km/h 73 % 0 mm 0.0 W/m2 CLR
08:07 -11.9 °C -14.5 °C 34841.9 hPa SSE 26.9 km/h 26.9 km/h 73 % 0 mm 0.0 W/m2 CLR
08:12 -11.9 °C -14.5 °C 34841.9 hPa South 29.8 km/h 29.8 km/h 73 % 0 mm 0.0 W/m2 OVC
08:17 -11.6 °C -14.1 °C 34841.9 hPa SSE 26.9 km/h 26.9 km/h 74 % 0 mm 0.0 W/m2 OVC
08:22 -11.9 °C -14.4 °C 34841.9 hPa SSE 23.8 km/h 23.8 km/h 74 % 0 mm 5.0 W/m2 OVC
08:27 -11.9 °C -14.4 °C 34841.9 hPa SSE 29.8 km/h 29.8 km/h 74 % 0 mm 9.0 W/m2 BKN
08:32 -11.9 °C -14.3 °C 34841.9 hPa SSE 26.9 km/h 26.9 km/h 75 % 0 mm 12.0 W/m2 BKN
08:37 -11.9 °C -14.3 °C 34841.9 hPa South 31.1 km/h 31.1 km/h 75 % 0 mm 16.0 W/m2 BKN
08:42 -11.9 °C -14.3 °C 34852.1 hPa SSE 29.8 km/h 29.8 km/h 75 % 0 mm 19.0 W/m2 BKN
08:47 -11.9 °C -14.3 °C 34852.1 hPa South 31.1 km/h 31.1 km/h 75 % 0 mm 25.0 W/m2 BKN
08:52 -11.9 °C -14.4 °C 34852.1 hPa SSE 26.9 km/h 26.9 km/h 74 % 0 mm 33.0 W/m2 BKN
08:57 -11.9 °C -14.4 °C 34852.1 hPa SSE 26.9 km/h 26.9 km/h 74 % 0 mm 42.0 W/m2 BKN
09:02 -11.9 °C -14.4 °C 34852.1 hPa SSE 25.9 km/h 25.9 km/h 74 % 0 mm 56.0 W/m2 SCT
09:07 -11.9 °C -14.4 °C 34852.1 hPa South 26.9 km/h 26.9 km/h 74 % 0 mm 65.0 W/m2 SCT
09:12 -11.6 °C -14.1 °C 34852.1 hPa SE 17.9 km/h 17.9 km/h 74 % 0 mm 69.0 W/m2 FEW
09:17 -11.6 °C -14.2 °C 34852.1 hPa SSW 26.9 km/h 26.9 km/h 73 % 0 mm 77.0 W/m2 FEW
09:22 -11.6 °C -14.3 °C 34852.1 hPa SSE 29.8 km/h 29.8 km/h 72 % 0 mm 95.0 W/m2 FEW
09:27 -11.3 °C -14.2 °C 34852.1 hPa SSW 38.8 km/h 38.8 km/h 70 % 0 mm 116.0 W/m2 CLR
09:32 -11.3 °C -14.3 °C 34852.1 hPa SSE 38.8 km/h 38.8 km/h 69 % 0 mm 121.0 W/m2 CLR
09:37 -11.3 °C -14.3 °C 34865.6 hPa SSW 36.2 km/h 36.2 km/h 69 % 0 mm 158.0 W/m2 CLR
09:42 -11 °C -14.2 °C 34865.6 hPa SSW 35.7 km/h 35.7 km/h 68 % 0 mm 125.0 W/m2 CLR
09:47 -10.7 °C -13.9 °C 34865.6 hPa South 29.8 km/h 29.8 km/h 68 % 0 mm 132.0 W/m2 CLR
09:52 -10.7 °C -13.9 °C 34852.1 hPa SSW 33.6 km/h 33.6 km/h 68 % 0 mm 216.0 W/m2 CLR
09:57 -10.7 °C -14 °C 34865.6 hPa SW 38.8 km/h 38.8 km/h 67 % 0 mm 234.0 W/m2 CLR
10:02 -10.4 °C -13.7 °C 34852.1 hPa SSW 38.8 km/h 38.8 km/h 67 % 0 mm 239.0 W/m2 CLR
10:07 -10.4 °C -13.7 °C 34852.1 hPa SSW 38.8 km/h 38.8 km/h 67 % 0 mm 234.0 W/m2 CLR
10:12 -10.4 °C -13.8 °C 34852.1 hPa South 50.7 km/h 50.7 km/h 66 % 0 mm 258.0 W/m2 CLR
10:17 -10.4 °C -13.9 °C 34865.6 hPa SSW 41.7 km/h 41.7 km/h 65 % 0 mm 229.0 W/m2 CLR
10:18 -10.4 °C -13.8 °C 34865.6 hPa SSW 33.6 km/h 33.6 km/h 66 % 0 mm 285.0 W/m2 CLR
10:23 -10.1 °C -13.6 °C 34865.6 hPa SW 44.7 km/h 44.7 km/h 66 % 0 mm 274.0 W/m2 CLR
10:28 -10.1 °C -13.7 °C 34865.6 hPa SW 41.4 km/h 41.4 km/h 65 % 0 mm 318.0 W/m2 CLR
10:33 -10.1 °C -13.7 °C 34865.6 hPa SW 38.8 km/h 38.8 km/h 65 % 0 mm 330.0 W/m2 CLR
10:38 -10.1 °C -13.7 °C 34865.6 hPa South 38.8 km/h 38.8 km/h 65 % 0 mm 345.0 W/m2 CLR
10:43 -10.1 °C -13.8 °C 34865.6 hPa SW 32.8 km/h 32.8 km/h 64 % 0 mm 360.0 W/m2 CLR
10:48 -9.8 °C -13.6 °C 34865.6 hPa SW 53.6 km/h 53.6 km/h 63 % 0 mm 383.0 W/m2 CLR
10:53 -9.8 °C -13.6 °C 34865.6 hPa SW 50.7 km/h 50.7 km/h 63 % 0 mm 390.0 W/m2 CLR
10:58 -9.8 °C -13.6 °C 34865.6 hPa SW 50.7 km/h 50.7 km/h 63 % 0 mm 371.0 W/m2 CLR
11:03 -9.8 °C -13.8 °C 34865.6 hPa SW 41.7 km/h 41.7 km/h 62 % 0 mm 318.0 W/m2 CLR
11:08 -9.8 °C -13.9 °C 34865.6 hPa SW 50.7 km/h 50.7 km/h 61 % 0 mm 373.0 W/m2 CLR
11:13 -9.8 °C -13.9 °C 34865.6 hPa SSW 50.7 km/h 50.7 km/h 61 % 0 mm 455.0 W/m2 CLR
11:18 -9.4 °C -13.6 °C 34865.6 hPa WSW 44.7 km/h 44.7 km/h 61 % 0 mm 438.0 W/m2 CLR
11:23 -9.4 °C -13.8 °C 34865.6 hPa SW 47.6 km/h 47.6 km/h 59 % 0 mm 364.0 W/m2 CLR
11:28 -9.4 °C -13.8 °C 34865.6 hPa SSW 41.7 km/h 41.7 km/h 59 % 0 mm 462.0 W/m2 CLR
11:33 -9.4 °C -13.8 °C 34865.6 hPa SSW 47.6 km/h 47.6 km/h 59 % 0 mm 503.0 W/m2 CLR
11:38 -9.1 °C -13.7 °C 34865.6 hPa SW 49.2 km/h 49.2 km/h 58 % 0 mm 390.0 W/m2 CLR
11:43 -9.1 °C -13.6 °C 34865.6 hPa SW 50.7 km/h 50.7 km/h 59 % 0 mm 512.0 W/m2 CLR
11:49 -8.8 °C -13.4 °C 34865.6 hPa WSW 59.5 km/h 59.5 km/h 58 % 0 mm 548.0 W/m2 CLR
11:54 -9.1 °C -13.7 °C 34852.1 hPa SSW 50.7 km/h 50.7 km/h 58 % 0 mm 478.0 W/m2 CLR
11:59 -9.1 °C -13.7 °C 34852.1 hPa SW 50.7 km/h 50.7 km/h 58 % 0 mm 418.0 W/m2 CLR
12:04 -8.8 °C -13.4 °C 34852.1 hPa South 44.7 km/h 44.7 km/h 58 % 0 mm 357.0 W/m2 CLR
12:09 -9.1 °C -13.7 °C 34852.1 hPa SSW 53.6 km/h 53.6 km/h 58 % 0 mm 471.0 W/m2 CLR
12:14 -8.8 °C -13.4 °C 34852.1 hPa SW 38.8 km/h 38.8 km/h 58 % 0 mm 622.0 W/m2 CLR
12:19 -8.5 °C -13.4 °C 34852.1 hPa WSW 54.4 km/h 54.4 km/h 56 % 0 mm 438.0 W/m2 CLR
12:24 -8.8 °C -13.7 °C 34852.1 hPa SW 47.6 km/h 47.6 km/h 56 % 0 mm 594.0 W/m2 CLR
12:29 -8.5 °C -13.4 °C 34852.1 hPa South 50.7 km/h 50.7 km/h 56 % 0 mm 598.0 W/m2 CLR
12:34 -8.5 °C -13.6 °C 34852.1 hPa SSW 62.6 km/h 62.6 km/h 55 % 0 mm 547.0 W/m2 CLR
12:39 -8.5 °C -13.7 °C 34841.9 hPa SSW 50.7 km/h 50.7 km/h 54 % 0 mm 582.0 W/m2 CLR
12:44 -8.5 °C -13.6 °C 34841.9 hPa SW 50.7 km/h 50.7 km/h 55 % 0 mm 592.0 W/m2 CLR
12:49 -8.2 °C -13.4 °C 34841.9 hPa SW 44.7 km/h 44.7 km/h 54 % 0 mm 598.0 W/m2 CLR
12:54 -8.2 °C -13.4 °C 34841.9 hPa SW 35.7 km/h 35.7 km/h 54 % 0 mm 606.0 W/m2 CLR
12:55 -7.9 °C -13.2 °C 34831.8 hPa SSW 49.2 km/h 49.2 km/h 54 % 0 mm 608.0 W/m2 CLR
13:00 -7.9 °C -13.3 °C 34831.8 hPa SW 35.7 km/h 35.7 km/h 53 % 0 mm 617.0 W/m2 CLR
13:05 -7.9 °C -13.4 °C 34831.8 hPa SSW 36.2 km/h 36.2 km/h 52 % 0 mm 515.0 W/m2 CLR
13:10 -8.2 °C -13.7 °C 34831.8 hPa SSW 56.6 km/h 56.6 km/h 52 % 0 mm 285.0 W/m2 CLR
13:15 -8.2 °C -13.6 °C 34831.8 hPa SW 47.6 km/h 47.6 km/h 53 % 0 mm 580.0 W/m2 CLR
13:20 -7.9 °C -13.3 °C 34831.8 hPa SSW 53.6 km/h 53.6 km/h 53 % 0 mm 636.0 W/m2 CLR
13:25 -7.6 °C -13.2 °C 34818.2 hPa SSW 53.6 km/h 53.6 km/h 52 % 0 mm 534.0 W/m2 CLR
13:30 -7.6 °C -13.2 °C 34818.2 hPa SW 38.8 km/h 38.8 km/h 52 % 0 mm 517.0 W/m2 CLR
13:35 -7.6 °C -13.3 °C 34818.2 hPa SW 56.6 km/h 56.6 km/h 51 % 0 mm 621.0 W/m2 CLR
13:40 -7.6 °C -13.3 °C 34808.1 hPa SW 47.6 km/h 47.6 km/h 51 % 0 mm 598.0 W/m2 CLR
13:45 -7.6 °C -13.3 °C 34808.1 hPa SW 68.6 km/h 68.6 km/h 51 % 0 mm 612.0 W/m2 CLR
13:50 -7.3 °C -13.1 °C 34808.1 hPa SW 46.7 km/h 46.7 km/h 51 % 0 mm 587.0 W/m2 CLR
13:55 -7.6 °C -13.2 °C 34808.1 hPa SW 29.8 km/h 29.8 km/h 52 % 0 mm 617.0 W/m2 CLR
14:00 -7.6 °C -13.5 °C 34808.1 hPa WSW 65.5 km/h 65.5 km/h 50 % 0 mm 526.0 W/m2 CLR
14:05 -7.6 °C -13.3 °C 34808.1 hPa SW 50.7 km/h 50.7 km/h 51 % 0 mm 599.0 W/m2 CLR
14:10 -7.6 °C -13.3 °C 34797.9 hPa WSW 62.1 km/h 62.1 km/h 51 % 0 mm 636.0 W/m2 CLR
14:15 -7.6 °C -13.5 °C 34797.9 hPa SSW 59.5 km/h 59.5 km/h 50 % 0 mm 629.0 W/m2 CLR
14:20 -7.6 °C -13.7 °C 34797.9 hPa SW 53.6 km/h 53.6 km/h 49 % 0 mm 647.0 W/m2 CLR
14:25 -7.6 °C -13.7 °C 34797.9 hPa SSW 59.5 km/h 59.5 km/h 49 % 0 mm 432.0 W/m2 CLR
14:30 -7.3 °C -13.4 °C 34797.9 hPa SW 59.5 km/h 59.5 km/h 49 % 0 mm 605.0 W/m2 CLR
14:35 -7.3 °C -13.4 °C 34797.9 hPa SW 50.7 km/h 50.7 km/h 49 % 0 mm 589.0 W/m2 CLR
14:40 -7.3 °C -13.6 °C 34797.9 hPa WSW 50.7 km/h 50.7 km/h 48 % 0 mm 598.0 W/m2 CLR
14:45 -7.3 °C -13.6 °C 34784.4 hPa WSW 65.5 km/h 65.5 km/h 48 % 0 mm 589.0 W/m2 CLR
14:50 -7.3 °C -13.6 °C 34797.9 hPa West 50.7 km/h 50.7 km/h 48 % 0 mm 585.0 W/m2 CLR
14:55 -7.3 °C -13.6 °C 34784.4 hPa WSW 46.7 km/h 46.7 km/h 48 % 0 mm 570.0 W/m2 CLR
15:00 -7.3 °C -13.6 °C 34784.4 hPa SW 62.1 km/h 62.1 km/h 48 % 0 mm 570.0 W/m2 CLR
15:05 -7.3 °C -13.7 °C 34784.4 hPa WSW 50.7 km/h 50.7 km/h 47 % 0 mm 564.0 W/m2 CLR
15:10 -7.3 °C -13.7 °C 34784.4 hPa WSW 59.5 km/h 59.5 km/h 47 % 0 mm 555.0 W/m2 CLR
15:15 -7.3 °C -13.6 °C 34784.4 hPa SW 62.6 km/h 62.6 km/h 48 % 0 mm 545.0 W/m2 CLR
15:20 -7 °C -13.4 °C 34784.4 hPa WSW 50.7 km/h 50.7 km/h 47 % 0 mm 538.0 W/m2 CLR
15:25 -7 °C -13.4 °C 34774.2 hPa SSW 50.7 km/h 50.7 km/h 47 % 0 mm 531.0 W/m2 CLR
15:30 -7 °C -13.2 °C 34774.2 hPa SW 67.3 km/h 67.3 km/h 48 % 0 mm 522.0 W/m2 CLR
15:35 -7 °C -13.4 °C 34784.4 hPa WSW 53.6 km/h 53.6 km/h 47 % 0 mm 513.0 W/m2 CLR
15:40 -7.3 °C -13.7 °C 34784.4 hPa WSW 56.6 km/h 56.6 km/h 47 % 0 mm 506.0 W/m2 CLR
15:45 -7.3 °C -13.7 °C 34774.2 hPa SW 49.2 km/h 49.2 km/h 47 % 0 mm 494.0 W/m2 CLR
15:50 -7.3 °C -13.6 °C 34774.2 hPa SW 50.7 km/h 50.7 km/h 48 % 0 mm 494.0 W/m2 CLR
15:55 -7.6 °C -14 °C 34774.2 hPa WSW 41.7 km/h 41.7 km/h 47 % 0 mm 482.0 W/m2 CLR
16:00 -7.6 °C -14 °C 34774.2 hPa WSW 53.6 km/h 53.6 km/h 47 % 0 mm 469.0 W/m2 CLR
16:02 -7.6 °C -14 °C 34774.2 hPa WSW 53.6 km/h 53.6 km/h 47 % 0 mm 469.0 W/m2 CLR
16:07 -7.6 °C -13.8 °C 34774.2 hPa West 53.6 km/h 53.6 km/h 48 % 0 mm 457.0 W/m2 CLR
16:12 -7.3 °C -13.4 °C 34774.2 hPa West 56.6 km/h 56.6 km/h 49 % 0 mm 441.0 W/m2 CLR
16:17 -7.6 °C -13.8 °C 34774.2 hPa WSW 65.5 km/h 65.5 km/h 48 % 0 mm 436.0 W/m2 CLR
16:22 -7.6 °C -13.7 °C 34774.2 hPa WSW 53.6 km/h 53.6 km/h 49 % 0 mm 425.0 W/m2 CLR
16:27 -7.3 °C -13.6 °C 34774.2 hPa WSW 68.6 km/h 68.6 km/h 48 % 0 mm 413.0 W/m2 CLR
16:32 -7.6 °C -13.8 °C 34760.7 hPa SW 62.6 km/h 62.6 km/h 48 % 0 mm 404.0 W/m2 CLR
16:42 -7.6 °C -14 °C 34760.7 hPa WSW 62.1 km/h 62.1 km/h 47 % 0 mm 381.0 W/m2 CLR
16:47 -7.6 °C -14 °C 34760.7 hPa WSW 47.6 km/h 47.6 km/h 47 % 0 mm 380.0 W/m2 CLR
16:52 -7.6 °C -13.8 °C 34760.7 hPa WSW 47.6 km/h 47.6 km/h 48 % 0 mm 285.0 W/m2 CLR
16:57 -7.6 °C -13.7 °C 34760.7 hPa SSW 56.6 km/h 56.6 km/h 49 % 0 mm 272.0 W/m2 CLR
17:02 -7.9 °C -14.1 °C 34760.7 hPa SW 53.6 km/h 53.6 km/h 48 % 0 mm 248.0 W/m2 CLR
17:07 -7.9 °C -13.9 °C 34760.7 hPa SW 59.5 km/h 59.5 km/h 49 % 0 mm 308.0 W/m2 CLR
17:12 -7.9 °C -13.9 °C 34760.7 hPa West 56.6 km/h 56.6 km/h 49 % 0 mm 225.0 W/m2 CLR
17:13 -7.9 °C -13.9 °C 34760.7 hPa WSW 68.6 km/h 68.6 km/h 49 % 0 mm 257.0 W/m2 CLR
17:18 -7.9 °C -13.8 °C 34760.7 hPa West 59.5 km/h 59.5 km/h 50 % 0 mm 264.0 W/m2 CLR
17:24 -7.9 °C -13.6 °C 34760.7 hPa WSW 62.6 km/h 62.6 km/h 51 % 0 mm 229.0 W/m2 CLR
17:29 -7.9 °C -13.6 °C 34760.7 hPa West 74.5 km/h 74.5 km/h 51 % 0 mm 220.0 W/m2 CLR
17:34 -8.2 °C -13.9 °C 34760.7 hPa SW 65.5 km/h 65.5 km/h 51 % 0 mm 178.0 W/m2 CLR
17:39 -8.2 °C -13.9 °C 34760.7 hPa SW 62.6 km/h 62.6 km/h 51 % 0 mm 183.0 W/m2 CLR
17:43 -8.2 °C -13.9 °C 34760.7 hPa WSW 38.8 km/h 38.8 km/h 51 % 0 mm 193.0 W/m2 CLR
17:49 -8.5 °C -14.2 °C 34760.7 hPa WSW 68.6 km/h 68.6 km/h 51 % 0 mm 149.0 W/m2 CLR
17:54 -8.5 °C -14 °C 34760.7 hPa WSW 56.6 km/h 56.6 km/h 52 % 0 mm 141.0 W/m2 CLR
17:59 -8.5 °C -14.2 °C 34760.7 hPa SW 56.6 km/h 56.6 km/h 51 % 0 mm 160.0 W/m2 CLR
18:04 -8.5 °C -14.3 °C 34760.7 hPa WSW 71.5 km/h 71.5 km/h 50 % 0 mm 149.0 W/m2 CLR
18:09 -8.5 °C -14.3 °C 34774.2 hPa WSW 65.5 km/h 65.5 km/h 50 % 0 mm 137.0 W/m2 CLR
18:14 -8.5 °C -14.2 °C 34774.2 hPa SW 54.4 km/h 54.4 km/h 51 % 0 mm 105.0 W/m2 CLR
18:19 -8.8 °C -14.5 °C 34774.2 hPa SW 59.5 km/h 59.5 km/h 51 % 0 mm 81.0 W/m2 CLR
18:24 -8.8 °C -14.3 °C 34774.2 hPa SW 50.7 km/h 50.7 km/h 52 % 0 mm 67.0 W/m2 FEW
18:29 -8.8 °C -14.3 °C 34784.4 hPa WSW 59.5 km/h 59.5 km/h 52 % 0 mm 56.0 W/m2 SCT
18:34 -8.8 °C -14.2 °C 34784.4 hPa SW 53.6 km/h 53.6 km/h 53 % 0 mm 40.0 W/m2 SCT
18:39 -8.8 °C -14.2 °C 34784.4 hPa WSW 49.2 km/h 49.2 km/h 53 % 0 mm 30.0 W/m2 BKN
18:44 -9.1 °C -14.4 °C 34797.9 hPa WSW 50.7 km/h 50.7 km/h 53 % 0 mm 18.0 W/m2 BKN
18:49 -9.1 °C -14.1 °C 34784.4 hPa SW 47.6 km/h 47.6 km/h 55 % 0 mm 14.0 W/m2 BKN
18:54 -9.1 °C -14.1 °C 34784.4 hPa SW 47.6 km/h 47.6 km/h 55 % 0 mm 12.0 W/m2 BKN
18:59 -9.4 °C -14.3 °C 34784.4 hPa SW 56.6 km/h 56.6 km/h 56 % 0 mm 11.0 W/m2 BKN
19:04 -9.4 °C -14.3 °C 34797.9 hPa SW 50.7 km/h 50.7 km/h 56 % 0 mm 5.0 W/m2 OVC
19:09 -9.4 °C -14.1 °C 34797.9 hPa WSW 53.6 km/h 53.6 km/h 57 % 0 mm 0.0 W/m2 OVC
19:14 -9.4 °C -14.1 °C 34797.9 hPa WSW 65.5 km/h 65.5 km/h 57 % 0 mm 0.0 W/m2 OVC
19:19 -9.4 °C -14.1 °C 34797.9 hPa WSW 62.6 km/h 62.6 km/h 57 % 0 mm 0.0 W/m2 OVC
19:24 -9.4 °C -14.1 °C 34797.9 hPa SW 38.8 km/h 38.8 km/h 57 % 0 mm 0.0 W/m2 CLR
19:29 -9.8 °C -14.3 °C 34797.9 hPa SW 38.8 km/h 38.8 km/h 58 % 0 mm 0.0 W/m2 CLR
19:34 -9.4 °C -13.8 °C 34808.1 hPa WSW 38.8 km/h 38.8 km/h 59 % 0 mm 0.0 W/m2 CLR
19:39 -9.8 °C -14.2 °C 34808.1 hPa West 59.5 km/h 59.5 km/h 59 % 0 mm 0.0 W/m2 CLR
19:44 -9.8 °C -14.2 °C 34808.1 hPa SW 41.7 km/h 41.7 km/h 59 % 0 mm 0.0 W/m2 CLR
19:49 -9.8 °C -14 °C 34808.1 hPa SW 50.7 km/h 50.7 km/h 60 % 0 mm 0.0 W/m2 CLR
19:54 -9.8 °C -14 °C 34808.1 hPa SSW 33.6 km/h 33.6 km/h 60 % 0 mm 0.0 W/m2 CLR
19:59 -9.8 °C -14 °C 34818.2 hPa South 38.8 km/h 38.8 km/h 60 % 0 mm 0.0 W/m2 CLR
20:04 -9.8 °C -14 °C 34818.2 hPa SW 38.8 km/h 38.8 km/h 60 % 0 mm 0.0 W/m2 CLR
20:09 -9.8 °C -14 °C 34818.2 hPa SW 32.8 km/h 32.8 km/h 60 % 0 mm 0.0 W/m2 CLR
20:14 -9.8 °C -14 °C 34818.2 hPa SSW 32.8 km/h 32.8 km/h 60 % 0 mm 0.0 W/m2 CLR
20:19 -10.1 °C -14.3 °C 34818.2 hPa SSW 41.7 km/h 41.7 km/h 60 % 0 mm 0.0 W/m2 CLR
20:24 -9.8 °C -13.9 °C 34818.2 hPa SW 35.7 km/h 35.7 km/h 61 % 0 mm 0.0 W/m2 CLR
20:29 -10.1 °C -14.2 °C 34818.2 hPa SW 26.9 km/h 26.9 km/h 61 % 0 mm 0.0 W/m2 CLR
20:34 -10.1 °C -14.1 °C 34831.8 hPa SW 35.7 km/h 35.7 km/h 62 % 0 mm 0.0 W/m2 CLR
20:39 -10.1 °C -14.1 °C 34831.8 hPa SSW 32.8 km/h 32.8 km/h 62 % 0 mm 0.0 W/m2 CLR
20:44 -10.1 °C -14.1 °C 34831.8 hPa SW 36.2 km/h 36.2 km/h 62 % 0 mm 0.0 W/m2 CLR
20:49 -10.1 °C -14.1 °C 34841.9 hPa SSW 38.8 km/h 38.8 km/h 62 % 0 mm 0.0 W/m2 CLR
20:54 -10.1 °C -14.1 °C 34841.9 hPa SSW 35.7 km/h 35.7 km/h 62 % 0 mm 0.0 W/m2 CLR
20:59 -10.1 °C -14.1 °C 34841.9 hPa South 17.9 km/h 17.9 km/h 62 % 0 mm 0.0 W/m2 CLR
21:00 -10.1 °C -14.1 °C 34841.9 hPa South 17.9 km/h 17.9 km/h 62 % 0 mm 0.0 W/m2 CLR
21:05 -10.4 °C -14.2 °C 34841.9 hPa SSW 15.6 km/h 15.6 km/h 63 % 0 mm 0.0 W/m2 CLR
21:10 -10.4 °C -14.2 °C 34841.9 hPa SSW 35.7 km/h 35.7 km/h 63 % 0 mm 0.0 W/m2 CLR
21:15 -10.4 °C -14.2 °C 34841.9 hPa SW 29.8 km/h 29.8 km/h 63 % 0 mm 0.0 W/m2 CLR
21:20 -10.7 °C -14.5 °C 34841.9 hPa SW 15 km/h 15 km/h 63 % 0 mm 0.0 W/m2 CLR
21:25 -10.7 °C -14.5 °C 34841.9 hPa SSW 28.5 km/h 28.5 km/h 63 % 0 mm 0.0 W/m2 CLR
21:30 -10.4 °C -14.2 °C 34852.1 hPa SSW 20.9 km/h 20.9 km/h 63 % 0 mm 0.0 W/m2 CLR
21:35 -10.4 °C -14.2 °C 34852.1 hPa South 12.9 km/h 12.9 km/h 63 % 0 mm 0.0 W/m2 CLR
21:40 -10.4 °C -14.2 °C 34852.1 hPa South 28.5 km/h 28.5 km/h 63 % 0 mm 0.0 W/m2 CLR
21:45 -10.4 °C -14.2 °C 34852.1 hPa SSW 26.9 km/h 26.9 km/h 63 % 0 mm 0.0 W/m2 CLR
21:50 -10.4 °C -14.2 °C 34852.1 hPa SSW 20.8 km/h 20.8 km/h 63 % 0 mm 0.0 W/m2 CLR
21:55 -10.7 °C -14.5 °C 34852.1 hPa SSW 29.8 km/h 29.8 km/h 63 % 0 mm 0.0 W/m2 CLR
22:00 -10.7 °C -14.5 °C 34852.1 hPa SSW 35.7 km/h 35.7 km/h 63 % 0 mm 0.0 W/m2 CLR
22:05 -10.4 °C -14.2 °C 34852.1 hPa SSE 23.8 km/h 23.8 km/h 63 % 0 mm 0.0 W/m2 CLR
22:10 -10.7 °C -14.5 °C 34852.1 hPa SSE 3.1 km/h   63 % 0 mm 0.0 W/m2 CLR
22:15 -10.7 °C -14.4 °C 34852.1 hPa SSE 15 km/h 15 km/h 64 % 0 mm 0.0 W/m2 CLR
22:20 -11 °C -14.7 °C 34852.1 hPa SSE 15 km/h 15 km/h 64 % 0 mm 0.0 W/m2 CLR
22:25 -11.3 °C -14.9 °C 34852.1 hPa South 17.9 km/h 17.9 km/h 64 % 0 mm 0.0 W/m2 CLR
22:30 -11.3 °C -14.9 °C 34852.1 hPa South 11.9 km/h 11.9 km/h 64 % 0 mm 0.0 W/m2 CLR
22:32 -11.3 °C -14.9 °C 34852.1 hPa Calm     64 % 0 mm 0.0 W/m2 CLR
22:37 -11.3 °C -14.8 °C 34852.1 hPa SSE 11.9 km/h 11.9 km/h 65 % 0 mm 0.0 W/m2 CLR
22:42 -11.3 °C -14.8 °C 34852.1 hPa South 29.8 km/h 29.8 km/h 65 % 0 mm 0.0 W/m2 CLR
22:47 -11.3 °C -14.7 °C 34852.1 hPa South 29.8 km/h 29.8 km/h 66 % 0 mm 0.0 W/m2 CLR
22:48 -11.3 °C -14.8 °C 34852.1 hPa SSW 38.8 km/h 38.8 km/h 65 % 0 mm 0.0 W/m2 CLR
22:53 -11.3 °C -14.8 °C 34852.1 hPa South 23.8 km/h 23.8 km/h 65 % 0 mm 0.0 W/m2 CLR
22:58 -11.3 °C -14.8 °C 34852.1 hPa South 29.8 km/h 29.8 km/h 65 % 0 mm 0.0 W/m2 CLR
23:03 -11.3 °C -14.8 °C 34852.1 hPa South 26.9 km/h 26.9 km/h 65 % 0 mm 0.0 W/m2 CLR
23:08 -11 °C -14.6 °C 34852.1 hPa South 31.1 km/h 31.1 km/h 65 % 0 mm 0.0 W/m2 CLR
23:13 -11 °C -14.6 °C 34852.1 hPa SSE 26.9 km/h 26.9 km/h 65 % 0 mm 0.0 W/m2 CLR
23:18 -11 °C -14.6 °C 34852.1 hPa SE 15.6 km/h 15.6 km/h 65 % 0 mm 0.0 W/m2 CLR
23:23 -11 °C -14.4 °C 34852.1 hPa SSE 15.6 km/h 15.6 km/h 66 % 0 mm 0.0 W/m2 CLR
23:28 -11.3 °C -14.7 °C 34852.1 hPa SSE 15 km/h 15 km/h 66 % 0 mm 0.0 W/m2 CLR
23:33 -11.3 °C -14.7 °C 34852.1 hPa South 23.3 km/h 23.3 km/h 66 % 0 mm 0.0 W/m2 CLR
23:38 -11.3 °C -14.6 °C 34852.1 hPa South 29.8 km/h 29.8 km/h 67 % 0 mm 0.0 W/m2 CLR
23:43 -11.3 °C -14.6 °C 34852.1 hPa South 32.8 km/h 32.8 km/h 67 % 0 mm 0.0 W/m2 CLR
23:48 -11.3 °C -14.6 °C 34852.1 hPa South 23.8 km/h 23.8 km/h 67 % 0 mm 0.0 W/m2 CLR
23:53 -11.6 °C -14.9 °C 34865.6 hPa South 20.9 km/h 20.9 km/h 67 % 0 mm 0.0 W/m2 CLR
23:58 -11.6 °C -14.9 °C 34852.1 hPa SSW 29.8 km/h 29.8 km/h 67 % 0 mm 0.0 W/m2 CLR
Lo Temps de Massalio
Compliments of Weather Underground - 1.25 mb